sensor_id;sensor_type;location;lat;lon;timestamp;P1;durP1;ratioP1;P2;durP2;ratioP2
35990;SDS011;22064;42.672;23.282;2023-06-22T00:00:51;13.93;;;7.90;;
35990;SDS011;22064;42.672;23.282;2023-06-22T00:03:18;14.07;;;7.80;;
35990;SDS011;22064;42.672;23.282;2023-06-22T00:05:45;14.45;;;7.90;;
35990;SDS011;22064;42.672;23.282;2023-06-22T00:08:11;14.20;;;7.68;;
35990;SDS011;22064;42.672;23.282;2023-06-22T00:10:38;12.52;;;7.75;;
35990;SDS011;22064;42.672;23.282;2023-06-22T00:13:04;14.13;;;7.70;;
35990;SDS011;22064;42.672;23.282;2023-06-22T00:15:34;12.80;;;6.82;;
35990;SDS011;22064;42.672;23.282;2023-06-22T00:18:00;12.57;;;7.00;;
35990;SDS011;22064;42.672;23.282;2023-06-22T00:20:27;12.95;;;7.22;;
35990;SDS011;22064;42.672;23.282;2023-06-22T00:22:54;11.88;;;7.05;;
35990;SDS011;22064;42.672;23.282;2023-06-22T00:25:21;12.30;;;7.10;;
35990;SDS011;22064;42.672;23.282;2023-06-22T00:27:47;16.95;;;8.40;;
35990;SDS011;22064;42.672;23.282;2023-06-22T00:30:13;13.65;;;8.63;;
35990;SDS011;22064;42.672;23.282;2023-06-22T00:32:40;14.07;;;8.27;;
35990;SDS011;22064;42.672;23.282;2023-06-22T00:35:07;14.85;;;8.43;;
35990;SDS011;22064;42.672;23.282;2023-06-22T00:37:33;14.15;;;7.78;;
35990;SDS011;22064;42.672;23.282;2023-06-22T00:40:01;13.15;;;8.05;;
35990;SDS011;22064;42.672;23.282;2023-06-22T00:42:29;15.65;;;7.95;;
35990;SDS011;22064;42.672;23.282;2023-06-22T00:44:54;14.32;;;7.43;;
35990;SDS011;22064;42.672;23.282;2023-06-22T00:47:20;16.95;;;7.90;;
35990;SDS011;22064;42.672;23.282;2023-06-22T00:49:47;13.88;;;7.63;;
35990;SDS011;22064;42.672;23.282;2023-06-22T00:52:16;14.07;;;7.45;;
35990;SDS011;22064;42.672;23.282;2023-06-22T00:57:15;13.85;;;7.55;;
35990;SDS011;22064;42.672;23.282;2023-06-22T00:59:46;13.25;;;8.07;;
35990;SDS011;22064;42.672;23.282;2023-06-22T01:02:14;13.23;;;7.30;;
35990;SDS011;22064;42.672;23.282;2023-06-22T01:04:40;15.52;;;7.72;;
35990;SDS011;22064;42.672;23.282;2023-06-22T01:10:07;13.10;;;7.53;;
35990;SDS011;22064;42.672;23.282;2023-06-22T01:13:50;14.32;;;8.02;;
35990;SDS011;22064;42.672;23.282;2023-06-22T01:15:49;15.35;;;8.30;;
35990;SDS011;22064;42.672;23.282;2023-06-22T01:18:22;13.73;;;7.88;;
35990;SDS011;22064;42.672;23.282;2023-06-22T01:20:52;16.42;;;8.10;;
35990;SDS011;22064;42.672;23.282;2023-06-22T01:31:19;15.30;;;8.20;;
35990;SDS011;22064;42.672;23.282;2023-06-22T01:33:52;15.57;;;7.82;;
35990;SDS011;22064;42.672;23.282;2023-06-22T01:36:21;12.95;;;7.95;;
35990;SDS011;22064;42.672;23.282;2023-06-22T01:38:49;16.63;;;8.07;;
35990;SDS011;22064;42.672;23.282;2023-06-22T01:41:19;13.48;;;7.70;;
35990;SDS011;22064;42.672;23.282;2023-06-22T01:43:46;15.85;;;7.80;;
35990;SDS011;22064;42.672;23.282;2023-06-22T01:46:14;15.27;;;7.82;;
35990;SDS011;22064;42.672;23.282;2023-06-22T01:48:40;15.25;;;8.18;;
35990;SDS011;22064;42.672;23.282;2023-06-22T01:51:06;15.32;;;7.93;;
35990;SDS011;22064;42.672;23.282;2023-06-22T01:53:33;15.93;;;8.35;;
35990;SDS011;22064;42.672;23.282;2023-06-22T01:55:58;15.45;;;8.35;;
35990;SDS011;22064;42.672;23.282;2023-06-22T01:58:28;17.20;;;8.68;;
35990;SDS011;22064;42.672;23.282;2023-06-22T02:01:00;14.82;;;8.18;;
35990;SDS011;22064;42.672;23.282;2023-06-22T02:03:35;17.67;;;9.05;;
35990;SDS011;22064;42.672;23.282;2023-06-22T02:06:08;17.48;;;8.40;;
35990;SDS011;22064;42.672;23.282;2023-06-22T02:09:01;16.52;;;8.98;;
35990;SDS011;22064;42.672;23.282;2023-06-22T02:11:31;15.23;;;8.40;;
35990;SDS011;22064;42.672;23.282;2023-06-22T02:13:59;17.42;;;8.57;;
35990;SDS011;22064;42.672;23.282;2023-06-22T02:16:25;15.95;;;8.82;;
35990;SDS011;22064;42.672;23.282;2023-06-22T02:18:55;15.90;;;8.32;;
35990;SDS011;22064;42.672;23.282;2023-06-22T02:21:23;18.60;;;9.15;;
35990;SDS011;22064;42.672;23.282;2023-06-22T02:23:49;17.20;;;9.02;;
35990;SDS011;22064;42.672;23.282;2023-06-22T02:26:16;15.13;;;8.35;;
35990;SDS011;22064;42.672;23.282;2023-06-22T02:28:43;17.30;;;8.32;;
35990;SDS011;22064;42.672;23.282;2023-06-22T02:31:09;16.45;;;7.95;;
35990;SDS011;22064;42.672;23.282;2023-06-22T02:33:36;14.88;;;8.05;;
35990;SDS011;22064;42.672;23.282;2023-06-22T02:36:02;15.80;;;7.72;;
35990;SDS011;22064;42.672;23.282;2023-06-22T02:38:37;12.15;;;7.38;;
35990;SDS011;22064;42.672;23.282;2023-06-22T02:41:03;14.20;;;7.03;;
35990;SDS011;22064;42.672;23.282;2023-06-22T02:43:29;18.73;;;7.53;;
35990;SDS011;22064;42.672;23.282;2023-06-22T02:45:55;13.27;;;7.43;;
35990;SDS011;22064;42.672;23.282;2023-06-22T02:48:21;13.02;;;7.40;;
35990;SDS011;22064;42.672;23.282;2023-06-22T02:50:46;16.25;;;7.93;;
35990;SDS011;22064;42.672;23.282;2023-06-22T02:53:12;16.13;;;8.70;;
35990;SDS011;22064;42.672;23.282;2023-06-22T02:55:42;16.67;;;8.32;;
35990;SDS011;22064;42.672;23.282;2023-06-22T02:58:08;15.90;;;8.95;;
35990;SDS011;22064;42.672;23.282;2023-06-22T03:00:36;20.35;;;9.68;;
35990;SDS011;22064;42.672;23.282;2023-06-22T03:03:04;15.63;;;8.73;;
35990;SDS011;22064;42.672;23.282;2023-06-22T03:05:30;15.95;;;8.70;;
35990;SDS011;22064;42.672;23.282;2023-06-22T03:07:59;15.73;;;8.05;;
35990;SDS011;22064;42.672;23.282;2023-06-22T03:10:26;14.88;;;8.45;;
35990;SDS011;22064;42.672;23.282;2023-06-22T03:12:52;16.92;;;9.32;;
35990;SDS011;22064;42.672;23.282;2023-06-22T03:15:18;20.17;;;9.20;;
35990;SDS011;22064;42.672;23.282;2023-06-22T03:17:44;16.30;;;8.95;;
35990;SDS011;22064;42.672;23.282;2023-06-22T03:20:11;15.38;;;8.52;;
35990;SDS011;22064;42.672;23.282;2023-06-22T03:22:38;16.83;;;8.52;;
35990;SDS011;22064;42.672;23.282;2023-06-22T03:25:05;17.55;;;9.40;;
35990;SDS011;22064;42.672;23.282;2023-06-22T03:27:38;19.42;;;9.98;;
35990;SDS011;22064;42.672;23.282;2023-06-22T03:30:07;17.67;;;8.40;;
35990;SDS011;22064;42.672;23.282;2023-06-22T03:32:35;18.90;;;9.77;;
35990;SDS011;22064;42.672;23.282;2023-06-22T03:35:01;17.23;;;8.88;;
35990;SDS011;22064;42.672;23.282;2023-06-22T03:37:28;18.90;;;10.45;;
35990;SDS011;22064;42.672;23.282;2023-06-22T03:39:54;19.88;;;10.10;;
35990;SDS011;22064;42.672;23.282;2023-06-22T03:42:21;23.70;;;9.93;;
35990;SDS011;22064;42.672;23.282;2023-06-22T03:44:47;21.73;;;11.43;;
35990;SDS011;22064;42.672;23.282;2023-06-22T03:47:13;20.42;;;11.80;;
35990;SDS011;22064;42.672;23.282;2023-06-22T03:49:39;21.60;;;11.30;;
35990;SDS011;22064;42.672;23.282;2023-06-22T03:52:05;20.38;;;11.80;;
35990;SDS011;22064;42.672;23.282;2023-06-22T03:54:31;25.63;;;12.18;;
35990;SDS011;22064;42.672;23.282;2023-06-22T03:56:57;23.40;;;11.82;;
35990;SDS011;22064;42.672;23.282;2023-06-22T03:59:23;23.92;;;13.23;;
35990;SDS011;22064;42.672;23.282;2023-06-22T04:01:49;21.35;;;12.43;;
35990;SDS011;22064;42.672;23.282;2023-06-22T04:04:16;22.58;;;13.10;;
35990;SDS011;22064;42.672;23.282;2023-06-22T04:06:44;21.08;;;11.55;;
35990;SDS011;22064;42.672;23.282;2023-06-22T04:09:10;22.25;;;12.57;;
35990;SDS011;22064;42.672;23.282;2023-06-22T04:11:36;22.98;;;12.43;;
35990;SDS011;22064;42.672;23.282;2023-06-22T04:14:02;19.73;;;10.68;;
35990;SDS011;22064;42.672;23.282;2023-06-22T04:16:28;19.48;;;11.45;;
35990;SDS011;22064;42.672;23.282;2023-06-22T04:18:54;19.52;;;10.68;;
35990;SDS011;22064;42.672;23.282;2023-06-22T04:21:20;18.73;;;10.48;;
35990;SDS011;22064;42.672;23.282;2023-06-22T04:23:46;18.02;;;10.27;;
35990;SDS011;22064;42.672;23.282;2023-06-22T04:26:12;19.83;;;11.77;;
35990;SDS011;22064;42.672;23.282;2023-06-22T04:28:42;18.67;;;10.55;;
35990;SDS011;22064;42.672;23.282;2023-06-22T04:31:07;19.92;;;10.90;;
35990;SDS011;22064;42.672;23.282;2023-06-22T04:33:33;17.10;;;10.18;;
35990;SDS011;22064;42.672;23.282;2023-06-22T04:35:59;19.35;;;10.48;;
35990;SDS011;22064;42.672;23.282;2023-06-22T04:38:29;16.30;;;8.93;;
35990;SDS011;22064;42.672;23.282;2023-06-22T04:40:58;19.92;;;11.18;;
35990;SDS011;22064;42.672;23.282;2023-06-22T04:43:27;18.85;;;10.90;;
35990;SDS011;22064;42.672;23.282;2023-06-22T04:45:58;21.48;;;11.25;;
35990;SDS011;22064;42.672;23.282;2023-06-22T04:48:29;20.08;;;11.68;;
35990;SDS011;22064;42.672;23.282;2023-06-22T04:51:01;24.38;;;12.55;;
35990;SDS011;22064;42.672;23.282;2023-06-22T04:53:30;24.52;;;12.82;;
35990;SDS011;22064;42.672;23.282;2023-06-22T04:55:57;20.83;;;12.27;;
35990;SDS011;22064;42.672;23.282;2023-06-22T04:58:22;21.85;;;12.48;;
35990;SDS011;22064;42.672;23.282;2023-06-22T05:00:52;22.45;;;13.32;;
35990;SDS011;22064;42.672;23.282;2023-06-22T05:03:18;20.27;;;11.93;;
35990;SDS011;22064;42.672;23.282;2023-06-22T05:05:44;22.23;;;12.45;;
35990;SDS011;22064;42.672;23.282;2023-06-22T05:08:10;24.92;;;12.25;;
35990;SDS011;22064;42.672;23.282;2023-06-22T05:10:37;19.70;;;11.00;;
35990;SDS011;22064;42.672;23.282;2023-06-22T05:13:03;24.95;;;12.63;;
35990;SDS011;22064;42.672;23.282;2023-06-22T05:15:29;19.83;;;11.30;;
35990;SDS011;22064;42.672;23.282;2023-06-22T05:17:58;18.75;;;10.60;;
35990;SDS011;22064;42.672;23.282;2023-06-22T05:20:25;20.17;;;11.02;;
35990;SDS011;22064;42.672;23.282;2023-06-22T05:22:51;21.23;;;11.98;;
35990;SDS011;22064;42.672;23.282;2023-06-22T05:25:16;20.98;;;11.48;;
35990;SDS011;22064;42.672;23.282;2023-06-22T05:27:42;22.33;;;11.57;;
35990;SDS011;22064;42.672;23.282;2023-06-22T05:30:09;23.60;;;11.25;;
35990;SDS011;22064;42.672;23.282;2023-06-22T05:32:37;22.05;;;11.23;;
35990;SDS011;22064;42.672;23.282;2023-06-22T05:35:03;22.10;;;11.43;;
35990;SDS011;22064;42.672;23.282;2023-06-22T05:37:29;18.50;;;10.35;;
35990;SDS011;22064;42.672;23.282;2023-06-22T05:39:55;21.02;;;11.68;;
35990;SDS011;22064;42.672;23.282;2023-06-22T05:42:22;19.73;;;11.10;;
35990;SDS011;22064;42.672;23.282;2023-06-22T05:44:51;20.38;;;11.45;;
35990;SDS011;22064;42.672;23.282;2023-06-22T05:47:18;21.10;;;11.10;;
35990;SDS011;22064;42.672;23.282;2023-06-22T05:49:44;22.88;;;12.32;;
35990;SDS011;22064;42.672;23.282;2023-06-22T05:52:10;20.80;;;11.00;;
35990;SDS011;22064;42.672;23.282;2023-06-22T05:54:36;18.40;;;10.52;;
35990;SDS011;22064;42.672;23.282;2023-06-22T05:57:04;22.52;;;12.25;;
35990;SDS011;22064;42.672;23.282;2023-06-22T05:59:30;20.65;;;11.70;;
35990;SDS011;22064;42.672;23.282;2023-06-22T06:01:56;23.60;;;11.82;;
35990;SDS011;22064;42.672;23.282;2023-06-22T06:04:22;18.60;;;10.85;;
35990;SDS011;22064;42.672;23.282;2023-06-22T06:06:48;19.80;;;11.00;;
35990;SDS011;22064;42.672;23.282;2023-06-22T06:09:14;21.98;;;11.57;;
35990;SDS011;22064;42.672;23.282;2023-06-22T06:11:40;20.00;;;11.00;;
35990;SDS011;22064;42.672;23.282;2023-06-22T06:14:06;16.67;;;10.65;;
35990;SDS011;22064;42.672;23.282;2023-06-22T06:16:32;17.92;;;10.75;;
35990;SDS011;22064;42.672;23.282;2023-06-22T06:18:58;24.52;;;10.80;;
35990;SDS011;22064;42.672;23.282;2023-06-22T06:21:24;20.10;;;11.68;;
35990;SDS011;22064;42.672;23.282;2023-06-22T06:23:50;21.50;;;11.13;;
35990;SDS011;22064;42.672;23.282;2023-06-22T06:26:16;18.58;;;10.60;;
35990;SDS011;22064;42.672;23.282;2023-06-22T06:28:42;19.95;;;10.57;;
35990;SDS011;22064;42.672;23.282;2023-06-22T06:31:09;19.20;;;10.65;;
35990;SDS011;22064;42.672;23.282;2023-06-22T06:33:35;19.23;;;10.85;;
35990;SDS011;22064;42.672;23.282;2023-06-22T06:36:02;19.40;;;11.32;;
35990;SDS011;22064;42.672;23.282;2023-06-22T06:38:31;19.40;;;10.68;;
35990;SDS011;22064;42.672;23.282;2023-06-22T06:40:57;17.83;;;10.17;;
35990;SDS011;22064;42.672;23.282;2023-06-22T06:43:24;17.40;;;10.32;;
35990;SDS011;22064;42.672;23.282;2023-06-22T06:45:50;17.38;;;9.60;;
35990;SDS011;22064;42.672;23.282;2023-06-22T06:48:16;16.80;;;10.15;;
35990;SDS011;22064;42.672;23.282;2023-06-22T06:50:43;17.75;;;10.18;;
35990;SDS011;22064;42.672;23.282;2023-06-22T06:53:09;16.90;;;10.32;;
35990;SDS011;22064;42.672;23.282;2023-06-22T06:55:35;16.33;;;9.63;;
35990;SDS011;22064;42.672;23.282;2023-06-22T06:58:02;17.65;;;10.80;;
35990;SDS011;22064;42.672;23.282;2023-06-22T07:00:33;17.13;;;9.57;;
35990;SDS011;22064;42.672;23.282;2023-06-22T07:02:58;19.83;;;10.80;;
35990;SDS011;22064;42.672;23.282;2023-06-22T07:05:24;19.25;;;10.13;;
35990;SDS011;22064;42.672;23.282;2023-06-22T07:07:50;18.05;;;10.57;;
35990;SDS011;22064;42.672;23.282;2023-06-22T07:10:16;17.30;;;9.80;;
35990;SDS011;22064;42.672;23.282;2023-06-22T07:12:42;20.33;;;10.10;;
35990;SDS011;22064;42.672;23.282;2023-06-22T07:15:08;16.90;;;10.20;;
35990;SDS011;22064;42.672;23.282;2023-06-22T07:17:35;19.98;;;10.95;;
35990;SDS011;22064;42.672;23.282;2023-06-22T07:20:02;19.30;;;11.00;;
35990;SDS011;22064;42.672;23.282;2023-06-22T07:22:33;17.52;;;10.32;;
35990;SDS011;22064;42.672;23.282;2023-06-22T07:24:59;17.90;;;10.80;;
35990;SDS011;22064;42.672;23.282;2023-06-22T07:27:26;16.92;;;10.60;;
35990;SDS011;22064;42.672;23.282;2023-06-22T07:29:52;19.27;;;10.85;;
35990;SDS011;22064;42.672;23.282;2023-06-22T07:32:18;18.58;;;11.20;;
35990;SDS011;22064;42.672;23.282;2023-06-22T07:34:44;19.67;;;10.48;;
35990;SDS011;22064;42.672;23.282;2023-06-22T07:37:10;20.13;;;10.93;;
35990;SDS011;22064;42.672;23.282;2023-06-22T07:39:36;20.10;;;10.60;;
35990;SDS011;22064;42.672;23.282;2023-06-22T07:42:03;18.73;;;10.80;;
35990;SDS011;22064;42.672;23.282;2023-06-22T07:44:29;18.08;;;10.77;;
35990;SDS011;22064;42.672;23.282;2023-06-22T07:46:55;19.58;;;11.38;;
35990;SDS011;22064;42.672;23.282;2023-06-22T07:49:21;22.80;;;11.25;;
35990;SDS011;22064;42.672;23.282;2023-06-22T07:51:47;16.92;;;10.43;;
35990;SDS011;22064;42.672;23.282;2023-06-22T07:54:12;17.88;;;10.73;;
35990;SDS011;22064;42.672;23.282;2023-06-22T07:56:41;22.67;;;11.82;;
35990;SDS011;22064;42.672;23.282;2023-06-22T07:59:07;19.65;;;9.88;;
35990;SDS011;22064;42.672;23.282;2023-06-22T08:01:33;18.13;;;10.73;;
35990;SDS011;22064;42.672;23.282;2023-06-22T08:03:58;19.38;;;10.88;;
35990;SDS011;22064;42.672;23.282;2023-06-22T08:06:24;16.08;;;9.27;;
35990;SDS011;22064;42.672;23.282;2023-06-22T08:08:50;17.13;;;10.85;;
35990;SDS011;22064;42.672;23.282;2023-06-22T08:11:18;17.77;;;10.50;;
35990;SDS011;22064;42.672;23.282;2023-06-22T08:13:44;16.98;;;10.27;;
35990;SDS011;22064;42.672;23.282;2023-06-22T08:16:10;16.67;;;9.98;;
35990;SDS011;22064;42.672;23.282;2023-06-22T08:18:36;19.90;;;10.60;;
35990;SDS011;22064;42.672;23.282;2023-06-22T08:21:02;16.83;;;11.27;;
35990;SDS011;22064;42.672;23.282;2023-06-22T08:23:28;17.70;;;10.10;;
35990;SDS011;22064;42.672;23.282;2023-06-22T08:25:54;19.33;;;10.63;;
35990;SDS011;22064;42.672;23.282;2023-06-22T08:28:20;18.83;;;10.75;;
35990;SDS011;22064;42.672;23.282;2023-06-22T08:30:46;15.05;;;9.50;;
35990;SDS011;22064;42.672;23.282;2023-06-22T08:33:12;18.50;;;10.50;;
35990;SDS011;22064;42.672;23.282;2023-06-22T08:35:38;17.00;;;10.45;;
35990;SDS011;22064;42.672;23.282;2023-06-22T08:38:04;18.35;;;11.05;;
35990;SDS011;22064;42.672;23.282;2023-06-22T08:40:30;17.45;;;11.35;;
35990;SDS011;22064;42.672;23.282;2023-06-22T08:42:56;15.60;;;10.68;;
35990;SDS011;22064;42.672;23.282;2023-06-22T08:45:21;16.25;;;9.85;;
35990;SDS011;22064;42.672;23.282;2023-06-22T08:47:47;17.73;;;10.98;;
35990;SDS011;22064;42.672;23.282;2023-06-22T08:50:14;18.70;;;10.25;;
35990;SDS011;22064;42.672;23.282;2023-06-22T08:52:40;17.05;;;10.15;;
35990;SDS011;22064;42.672;23.282;2023-06-22T08:55:09;16.65;;;10.13;;
35990;SDS011;22064;42.672;23.282;2023-06-22T08:57:36;14.85;;;9.82;;
35990;SDS011;22064;42.672;23.282;2023-06-22T09:00:08;18.30;;;9.45;;
35990;SDS011;22064;42.672;23.282;2023-06-22T09:02:41;14.45;;;8.23;;
35990;SDS011;22064;42.672;23.282;2023-06-22T09:05:08;14.60;;;9.00;;
35990;SDS011;22064;42.672;23.282;2023-06-22T09:07:34;11.32;;;8.02;;
35990;SDS011;22064;42.672;23.282;2023-06-22T09:10:00;12.52;;;8.20;;
35990;SDS011;22064;42.672;23.282;2023-06-22T09:12:26;11.88;;;7.53;;
35990;SDS011;22064;42.672;23.282;2023-06-22T09:14:53;12.27;;;7.82;;
35990;SDS011;22064;42.672;23.282;2023-06-22T09:17:19;11.88;;;7.63;;
35990;SDS011;22064;42.672;23.282;2023-06-22T09:19:45;13.32;;;8.93;;
35990;SDS011;22064;42.672;23.282;2023-06-22T09:22:10;13.40;;;8.07;;
35990;SDS011;22064;42.672;23.282;2023-06-22T09:24:36;13.32;;;7.97;;
35990;SDS011;22064;42.672;23.282;2023-06-22T09:27:02;11.90;;;7.40;;
35990;SDS011;22064;42.672;23.282;2023-06-22T09:29:28;12.95;;;7.75;;
35990;SDS011;22064;42.672;23.282;2023-06-22T09:31:55;11.43;;;6.93;;
35990;SDS011;22064;42.672;23.282;2023-06-22T09:34:21;13.85;;;7.70;;
35990;SDS011;22064;42.672;23.282;2023-06-22T09:36:47;9.52;;;7.30;;
35990;SDS011;22064;42.672;23.282;2023-06-22T09:39:13;12.60;;;8.23;;
35990;SDS011;22064;42.672;23.282;2023-06-22T09:41:39;13.05;;;8.15;;
35990;SDS011;22064;42.672;23.282;2023-06-22T09:44:05;11.80;;;7.97;;
35990;SDS011;22064;42.672;23.282;2023-06-22T09:46:31;14.02;;;8.30;;
35990;SDS011;22064;42.672;23.282;2023-06-22T09:48:57;11.52;;;7.65;;
35990;SDS011;22064;42.672;23.282;2023-06-22T09:51:23;14.43;;;8.48;;
35990;SDS011;22064;42.672;23.282;2023-06-22T09:53:49;11.68;;;7.82;;
35990;SDS011;22064;42.672;23.282;2023-06-22T09:56:16;14.70;;;8.68;;
35990;SDS011;22064;42.672;23.282;2023-06-22T09:58:44;13.45;;;8.38;;
35990;SDS011;22064;42.672;23.282;2023-06-22T10:01:11;16.17;;;8.18;;
35990;SDS011;22064;42.672;23.282;2023-06-22T10:03:40;16.50;;;8.55;;
35990;SDS011;22064;42.672;23.282;2023-06-22T10:06:07;14.30;;;7.97;;
35990;SDS011;22064;42.672;23.282;2023-06-22T10:08:37;14.20;;;9.15;;
35990;SDS011;22064;42.672;23.282;2023-06-22T10:11:03;13.60;;;8.80;;
35990;SDS011;22064;42.672;23.282;2023-06-22T10:13:29;15.25;;;8.25;;
35990;SDS011;22064;42.672;23.282;2023-06-22T10:15:55;12.70;;;8.68;;
35990;SDS011;22064;42.672;23.282;2023-06-22T10:18:21;12.25;;;8.48;;
35990;SDS011;22064;42.672;23.282;2023-06-22T10:20:47;13.48;;;8.50;;
35990;SDS011;22064;42.672;23.282;2023-06-22T10:25:42;12.93;;;7.95;;
35990;SDS011;22064;42.672;23.282;2023-06-22T10:28:08;11.75;;;8.00;;
35990;SDS011;22064;42.672;23.282;2023-06-22T10:30:34;12.93;;;7.65;;
35990;SDS011;22064;42.672;23.282;2023-06-22T10:33:00;15.82;;;7.90;;
35990;SDS011;22064;42.672;23.282;2023-06-22T10:35:26;12.52;;;7.90;;
35990;SDS011;22064;42.672;23.282;2023-06-22T10:37:52;12.13;;;7.80;;
35990;SDS011;22064;42.672;23.282;2023-06-22T10:40:18;12.93;;;8.13;;
35990;SDS011;22064;42.672;23.282;2023-06-22T10:42:44;14.25;;;7.68;;
35990;SDS011;22064;42.672;23.282;2023-06-22T10:45:10;12.70;;;8.48;;
35990;SDS011;22064;42.672;23.282;2023-06-22T10:47:36;14.35;;;8.65;;
35990;SDS011;22064;42.672;23.282;2023-06-22T10:50:02;12.93;;;8.57;;
35990;SDS011;22064;42.672;23.282;2023-06-22T10:52:29;12.48;;;8.13;;
35990;SDS011;22064;42.672;23.282;2023-06-22T10:54:55;14.38;;;8.38;;
35990;SDS011;22064;42.672;23.282;2023-06-22T10:57:21;14.15;;;8.25;;
35990;SDS011;22064;42.672;23.282;2023-06-22T10:59:47;13.88;;;8.35;;
35990;SDS011;22064;42.672;23.282;2023-06-22T11:02:14;11.98;;;8.18;;
35990;SDS011;22064;42.672;23.282;2023-06-22T11:04:40;13.48;;;8.63;;
35990;SDS011;22064;42.672;23.282;2023-06-22T11:07:06;13.00;;;8.30;;
35990;SDS011;22064;42.672;23.282;2023-06-22T11:09:31;12.02;;;7.90;;
35990;SDS011;22064;42.672;23.282;2023-06-22T11:11:58;12.85;;;8.75;;
35990;SDS011;22064;42.672;23.282;2023-06-22T11:14:24;13.43;;;7.90;;
35990;SDS011;22064;42.672;23.282;2023-06-22T11:16:50;18.02;;;8.82;;
35990;SDS011;22064;42.672;23.282;2023-06-22T11:19:17;12.05;;;8.15;;
35990;SDS011;22064;42.672;23.282;2023-06-22T11:21:43;14.48;;;8.70;;
35990;SDS011;22064;42.672;23.282;2023-06-22T11:24:10;14.40;;;8.40;;
35990;SDS011;22064;42.672;23.282;2023-06-22T11:26:36;14.88;;;8.25;;
35990;SDS011;22064;42.672;23.282;2023-06-22T11:29:02;12.40;;;8.57;;
35990;SDS011;22064;42.672;23.282;2023-06-22T11:33:57;12.25;;;8.75;;
35990;SDS011;22064;42.672;23.282;2023-06-22T11:36:24;12.85;;;8.95;;
35990;SDS011;22064;42.672;23.282;2023-06-22T11:38:50;13.90;;;9.20;;
35990;SDS011;22064;42.672;23.282;2023-06-22T11:41:17;12.77;;;8.73;;
35990;SDS011;22064;42.672;23.282;2023-06-22T11:43:43;16.33;;;8.90;;
35990;SDS011;22064;42.672;23.282;2023-06-22T11:46:09;14.90;;;8.88;;
35990;SDS011;22064;42.672;23.282;2023-06-22T11:48:36;14.43;;;9.38;;
35990;SDS011;22064;42.672;23.282;2023-06-22T11:51:02;12.90;;;8.52;;
35990;SDS011;22064;42.672;23.282;2023-06-22T11:53:28;15.68;;;9.52;;
35990;SDS011;22064;42.672;23.282;2023-06-22T11:55:54;17.48;;;9.32;;
35990;SDS011;22064;42.672;23.282;2023-06-22T11:58:21;14.05;;;8.82;;
35990;SDS011;22064;42.672;23.282;2023-06-22T12:00:47;15.18;;;9.82;;
35990;SDS011;22064;42.672;23.282;2023-06-22T12:03:13;19.52;;;10.20;;
35990;SDS011;22064;42.672;23.282;2023-06-22T12:05:40;16.15;;;9.73;;
35990;SDS011;22064;42.672;23.282;2023-06-22T12:08:06;15.27;;;9.35;;
35990;SDS011;22064;42.672;23.282;2023-06-22T12:10:32;14.77;;;9.60;;
35990;SDS011;22064;42.672;23.282;2023-06-22T12:12:58;15.57;;;9.90;;
35990;SDS011;22064;42.672;23.282;2023-06-22T12:15:25;16.10;;;9.93;;
35990;SDS011;22064;42.672;23.282;2023-06-22T12:17:52;16.10;;;10.20;;
35990;SDS011;22064;42.672;23.282;2023-06-22T12:20:18;16.80;;;10.15;;
35990;SDS011;22064;42.672;23.282;2023-06-22T12:22:44;15.80;;;9.75;;
35990;SDS011;22064;42.672;23.282;2023-06-22T12:25:10;16.92;;;9.80;;
35990;SDS011;22064;42.672;23.282;2023-06-22T12:27:36;20.42;;;10.77;;
35990;SDS011;22064;42.672;23.282;2023-06-22T12:30:03;20.67;;;11.13;;
35990;SDS011;22064;42.672;23.282;2023-06-22T12:32:29;16.48;;;10.15;;
35990;SDS011;22064;42.672;23.282;2023-06-22T12:34:55;17.55;;;9.75;;
35990;SDS011;22064;42.672;23.282;2023-06-22T12:37:22;18.67;;;10.80;;
35990;SDS011;22064;42.672;23.282;2023-06-22T12:39:49;18.65;;;10.45;;
35990;SDS011;22064;42.672;23.282;2023-06-22T12:42:15;18.98;;;9.02;;
35990;SDS011;22064;42.672;23.282;2023-06-22T12:44:41;18.80;;;9.32;;
35990;SDS011;22064;42.672;23.282;2023-06-22T12:47:07;20.73;;;10.02;;
35990;SDS011;22064;42.672;23.282;2023-06-22T12:49:34;17.38;;;9.65;;
35990;SDS011;22064;42.672;23.282;2023-06-22T12:52:00;18.27;;;8.88;;
35990;SDS011;22064;42.672;23.282;2023-06-22T12:54:26;16.30;;;8.82;;
35990;SDS011;22064;42.672;23.282;2023-06-22T12:56:53;18.20;;;9.20;;
35990;SDS011;22064;42.672;23.282;2023-06-22T12:59:19;14.57;;;8.38;;
35990;SDS011;22064;42.672;23.282;2023-06-22T13:01:45;19.08;;;9.43;;
35990;SDS011;22064;42.672;23.282;2023-06-22T13:04:11;14.40;;;7.78;;
35990;SDS011;22064;42.672;23.282;2023-06-22T13:06:42;16.17;;;8.82;;
35990;SDS011;22064;42.672;23.282;2023-06-22T13:09:09;16.53;;;8.50;;
35990;SDS011;22064;42.672;23.282;2023-06-22T13:11:36;15.98;;;9.10;;
35990;SDS011;22064;42.672;23.282;2023-06-22T13:14:01;17.42;;;9.00;;
35990;SDS011;22064;42.672;23.282;2023-06-22T13:16:27;19.40;;;9.70;;
35990;SDS011;22064;42.672;23.282;2023-06-22T13:18:53;16.23;;;8.60;;
35990;SDS011;22064;42.672;23.282;2023-06-22T13:21:19;16.33;;;9.95;;
35990;SDS011;22064;42.672;23.282;2023-06-22T13:23:45;19.25;;;9.70;;
35990;SDS011;22064;42.672;23.282;2023-06-22T13:26:11;18.60;;;9.48;;
35990;SDS011;22064;42.672;23.282;2023-06-22T13:28:37;14.40;;;8.85;;
35990;SDS011;22064;42.672;23.282;2023-06-22T13:31:02;16.48;;;8.77;;
35990;SDS011;22064;42.672;23.282;2023-06-22T13:33:28;18.48;;;10.13;;
35990;SDS011;22064;42.672;23.282;2023-06-22T13:35:54;16.63;;;9.18;;
35990;SDS011;22064;42.672;23.282;2023-06-22T13:38:20;17.75;;;9.95;;
35990;SDS011;22064;42.672;23.282;2023-06-22T13:40:48;15.50;;;8.68;;
35990;SDS011;22064;42.672;23.282;2023-06-22T13:43:14;18.05;;;9.95;;
35990;SDS011;22064;42.672;23.282;2023-06-22T13:45:41;17.00;;;9.68;;
35990;SDS011;22064;42.672;23.282;2023-06-22T13:48:07;15.82;;;9.85;;
35990;SDS011;22064;42.672;23.282;2023-06-22T13:50:33;17.05;;;9.50;;
35990;SDS011;22064;42.672;23.282;2023-06-22T13:52:59;17.85;;;9.35;;
35990;SDS011;22064;42.672;23.282;2023-06-22T13:55:25;13.75;;;7.65;;
35990;SDS011;22064;42.672;23.282;2023-06-22T13:57:52;22.40;;;8.57;;
35990;SDS011;22064;42.672;23.282;2023-06-22T14:00:18;17.58;;;9.25;;
35990;SDS011;22064;42.672;23.282;2023-06-22T14:02:44;16.38;;;8.93;;
35990;SDS011;22064;42.672;23.282;2023-06-22T14:05:10;18.35;;;10.20;;
35990;SDS011;22064;42.672;23.282;2023-06-22T14:07:36;15.57;;;8.40;;
35990;SDS011;22064;42.672;23.282;2023-06-22T14:10:05;16.35;;;9.02;;
35990;SDS011;22064;42.672;23.282;2023-06-22T14:12:32;16.00;;;9.18;;
35990;SDS011;22064;42.672;23.282;2023-06-22T14:14:57;19.20;;;9.20;;
35990;SDS011;22064;42.672;23.282;2023-06-22T14:17:23;16.80;;;8.63;;
35990;SDS011;22064;42.672;23.282;2023-06-22T14:19:52;18.52;;;9.00;;
35990;SDS011;22064;42.672;23.282;2023-06-22T14:22:18;16.70;;;9.32;;
35990;SDS011;22064;42.672;23.282;2023-06-22T14:24:45;14.55;;;8.18;;
35990;SDS011;22064;42.672;23.282;2023-06-22T14:27:11;15.98;;;8.43;;
35990;SDS011;22064;42.672;23.282;2023-06-22T14:29:37;14.85;;;7.95;;
35990;SDS011;22064;42.672;23.282;2023-06-22T14:32:03;15.82;;;8.15;;